createdAt,value
2018-07-10T00:00:17.568Z,1015.17
2018-07-10T00:01:27.252Z,1015.19
2018-07-10T00:02:36.915Z,1015.15
2018-07-10T00:03:46.655Z,1015.16
2018-07-10T00:04:55.821Z,1015.12
2018-07-10T00:06:05.229Z,1015.16
2018-07-10T00:07:14.386Z,1015.16
2018-07-10T00:08:24.061Z,1015.19
2018-07-10T00:09:33.724Z,1015.18
2018-07-10T00:10:42.888Z,1015.14
2018-07-10T00:11:52.317Z,1015.14
2018-07-10T00:13:02.140Z,1015.12
2018-07-10T00:14:11.551Z,1015.1
2018-07-10T00:15:21.231Z,1015.11
2018-07-10T00:16:30.413Z,1015.07
2018-07-10T00:17:39.298Z,1015.07
2018-07-10T00:18:48.462Z,1015.07
2018-07-10T00:19:57.627Z,1015.02
2018-07-10T00:21:06.269Z,1015.1
2018-07-10T00:22:15.692Z,1015.05
2018-07-10T00:23:25.376Z,1015.03
2018-07-10T00:24:34.794Z,1014.96
2018-07-10T00:25:43.707Z,1014.99
2018-07-10T00:26:53.120Z,1015
2018-07-10T00:28:02.562Z,1015.08
2018-07-10T00:29:11.719Z,1015.02
2018-07-10T00:30:20.881Z,1015.11
2018-07-10T00:31:30.565Z,1015.09
2018-07-10T00:32:39.199Z,1015.13
2018-07-10T00:33:48.601Z,1015.12
2018-07-10T00:34:57.489Z,1015.06
2018-07-10T00:36:07.168Z,1015.11
2018-07-10T00:37:17.094Z,1015.14
2018-07-10T00:38:26.533Z,1015.15
2018-07-10T00:39:35.759Z,1015.13
2018-07-10T00:40:44.413Z,1015.08
2018-07-10T00:41:53.592Z,1015.11
2018-07-10T00:43:03.265Z,1015.09
2018-07-10T00:44:12.689Z,1015.08
2018-07-10T00:45:21.853Z,1015.07
2018-07-10T00:46:31.274Z,1015.05
2018-07-10T00:47:40.445Z,1015.03
2018-07-10T00:48:50.192Z,1015.01
2018-07-10T00:49:59.617Z,1015.06
2018-07-10T00:51:09.279Z,1015.05
2018-07-10T00:52:18.680Z,1015.02
2018-07-10T00:53:28.083Z,1015
2018-07-10T00:54:37.502Z,1015
2018-07-10T00:55:46.917Z,1015.01
2018-07-10T00:56:56.609Z,1014.97
2018-07-10T00:58:05.788Z,1014.98
2018-07-10T00:59:15.221Z,1014.92
2018-07-10T01:00:24.117Z,1014.96
2018-07-10T01:01:33.269Z,1014.94
2018-07-10T01:02:42.428Z,1014.92
2018-07-10T01:03:52.103Z,1014.9
2018-07-10T01:05:01.531Z,1014.86
2018-07-10T01:06:10.946Z,1014.84
2018-07-10T01:07:19.834Z,1014.83
2018-07-10T01:08:28.749Z,1014.83
2018-07-10T01:09:38.671Z,1014.79
2018-07-10T01:10:48.091Z,1014.78
2018-07-10T01:11:57.505Z,1014.81
2018-07-10T01:13:07.192Z,1014.83
2018-07-10T01:14:16.882Z,1014.76
2018-07-10T01:15:26.060Z,1014.78
2018-07-10T01:16:35.722Z,1014.8
2018-07-10T01:17:44.871Z,1014.73
2018-07-10T01:18:54.372Z,1014.73
2018-07-10T01:20:03.995Z,1014.71
2018-07-10T01:21:13.673Z,1014.7
2018-07-10T01:22:23.090Z,1014.71
2018-07-10T01:23:32.520Z,1014.69
2018-07-10T01:24:41.408Z,1014.66
2018-07-10T01:25:50.826Z,1014.69
2018-07-10T01:26:59.987Z,1014.72
2018-07-10T01:28:09.410Z,1014.81
2018-07-10T01:29:18.558Z,1014.73
2018-07-10T01:30:28.001Z,1014.7
2018-07-10T01:31:37.179Z,1014.78
2018-07-10T01:32:46.600Z,1014.67
2018-07-10T01:33:56.282Z,1014.76
2018-07-10T01:35:05.953Z,1014.78
2018-07-10T01:36:15.141Z,1014.77
2018-07-10T01:37:24.546Z,1014.81
2018-07-10T01:38:33.690Z,1014.83
2018-07-10T01:39:42.863Z,1014.87
2018-07-10T01:40:52.030Z,1014.87
2018-07-10T01:42:01.435Z,1014.89
2018-07-10T01:43:10.856Z,1014.85
2018-07-10T01:44:20.265Z,1014.86
2018-07-10T01:45:29.718Z,1014.85
2018-07-10T01:46:39.148Z,1014.85
2018-07-10T01:47:48.322Z,1014.81
2018-07-10T01:48:57.735Z,1014.87
2018-07-10T01:50:07.422Z,1014.89
2018-07-10T01:51:16.579Z,1014.88
2018-07-10T01:52:26.273Z,1014.83
2018-07-10T01:53:35.449Z,1014.89
2018-07-10T01:54:45.121Z,1014.88
2018-07-10T01:55:54.301Z,1014.87
2018-07-10T01:57:03.465Z,1014.81
2018-07-10T01:58:13.128Z,1014.82
2018-07-10T01:59:22.542Z,1014.79
2018-07-10T02:00:31.964Z,1014.76
2018-07-10T02:01:41.373Z,1014.77
2018-07-10T02:02:50.509Z,1014.77
2018-07-10T02:03:59.918Z,1014.75
2018-07-10T02:05:09.079Z,1014.77
2018-07-10T02:06:18.498Z,1014.79
2018-07-10T02:07:28.160Z,1014.75
2018-07-10T02:08:37.314Z,1014.79
2018-07-10T02:09:46.998Z,1014.77
2018-07-10T02:10:56.661Z,1014.75
2018-07-10T02:12:06.342Z,1014.79
2018-07-10T02:13:16.015Z,1014.83
2018-07-10T02:14:25.432Z,1014.85
2018-07-10T02:15:34.869Z,1014.84
2018-07-10T02:16:44.027Z,1014.81
2018-07-10T02:17:53.178Z,1014.81
2018-07-10T02:19:02.852Z,1014.84
2018-07-10T02:20:12.591Z,1014.82
2018-07-10T02:21:22.009Z,1014.85
2018-07-10T02:22:31.419Z,1014.85
2018-07-10T02:23:41.398Z,1014.84
2018-07-10T02:24:51.067Z,1014.82
2018-07-10T02:26:00.499Z,1014.8
2018-07-10T02:27:09.675Z,1014.81
2018-07-10T02:28:19.091Z,1014.75
2018-07-10T02:29:28.496Z,1014.77
2018-07-10T02:30:37.920Z,1014.83
2018-07-10T02:31:47.341Z,1014.77
2018-07-10T02:32:56.755Z,1014.84
2018-07-10T02:34:05.669Z,1014.84
2018-07-10T02:35:15.351Z,1014.78
2018-07-10T02:36:25.042Z,1014.86
2018-07-10T02:37:34.711Z,1014.77
2018-07-10T02:38:43.639Z,1014.77
2018-07-10T02:39:53.350Z,1014.82
2018-07-10T02:41:03.007Z,1014.84
2018-07-10T02:42:12.180Z,1014.82
2018-07-10T02:43:21.848Z,1014.81
2018-07-10T02:44:30.773Z,1014.82
2018-07-10T02:45:40.204Z,1014.86
2018-07-10T02:46:49.875Z,1014.81
2018-07-10T02:47:59.808Z,1014.85
2018-07-10T02:49:08.965Z,1014.84
2018-07-10T02:50:18.422Z,1014.81
2018-07-10T02:51:27.595Z,1014.78
2018-07-10T02:52:36.489Z,1014.8
2018-07-10T02:53:45.911Z,1014.83
2018-07-10T02:54:55.346Z,1014.8
2018-07-10T02:56:05.344Z,1014.83
2018-07-10T02:57:15.010Z,1014.86
2018-07-10T02:58:24.414Z,1014.83
2018-07-10T02:59:33.328Z,1014.88
2018-07-10T03:00:42.764Z,1014.85
2018-07-10T03:01:51.921Z,1014.83
2018-07-10T03:03:01.102Z,1014.86
2018-07-10T03:04:10.274Z,1014.81
2018-07-10T03:05:19.682Z,1014.83
2018-07-10T03:06:29.602Z,1014.78
2018-07-10T03:07:38.769Z,1014.8
2018-07-10T03:08:47.913Z,1014.76
2018-07-10T03:09:57.902Z,1014.77
2018-07-10T03:11:07.056Z,1014.75
2018-07-10T03:12:16.715Z,1014.75
2018-07-10T03:13:25.904Z,1014.75
2018-07-10T03:14:35.581Z,1014.72
2018-07-10T03:15:45.519Z,1014.75
2018-07-10T03:16:54.681Z,1014.75
2018-07-10T03:18:04.376Z,1014.75
2018-07-10T03:19:13.792Z,1014.72
2018-07-10T03:20:23.469Z,1014.75
2018-07-10T03:21:33.423Z,1014.74
2018-07-10T03:22:42.589Z,1014.78
2018-07-10T03:23:52.265Z,1014.72
2018-07-10T03:25:02.205Z,1014.71
2018-07-10T03:26:11.368Z,1014.7
2018-07-10T03:27:20.785Z,1014.7
2018-07-10T03:28:30.193Z,1014.69
2018-07-10T03:29:39.873Z,1014.74
2018-07-10T03:30:49.288Z,1014.72
2018-07-10T03:31:59.002Z,1014.72
2018-07-10T03:33:08.155Z,1014.76
2018-07-10T03:34:17.829Z,1014.79
2018-07-10T03:35:26.984Z,1014.79
2018-07-10T03:36:36.658Z,1014.77
2018-07-10T03:37:45.557Z,1014.78
2018-07-10T03:38:54.699Z,1014.81
2018-07-10T03:40:04.102Z,1014.8
2018-07-10T03:41:13.782Z,1014.82
2018-07-10T03:42:23.719Z,1014.83
2018-07-10T03:43:32.891Z,1014.83
2018-07-10T03:44:42.577Z,1014.85
2018-07-10T03:45:52.375Z,1014.83
2018-07-10T03:47:02.109Z,1014.81
2018-07-10T03:48:11.530Z,1014.85
2018-07-10T03:49:20.439Z,1014.84
2018-07-10T03:50:29.609Z,1014.8
2018-07-10T03:51:38.511Z,1014.78
2018-07-10T03:52:47.941Z,1014.82
2018-07-10T03:53:57.104Z,1014.83
2018-07-10T03:55:06.060Z,1014.86
2018-07-10T03:56:15.486Z,1014.8
2018-07-10T03:57:25.144Z,1014.85
2018-07-10T03:58:34.571Z,1014.84
2018-07-10T03:59:44.267Z,1014.83
2018-07-10T04:00:52.903Z,1014.86
2018-07-10T04:02:02.320Z,1014.85
2018-07-10T04:03:11.471Z,1014.85
2018-07-10T04:04:21.140Z,1014.85
2018-07-10T04:05:30.805Z,1014.86
2018-07-10T04:06:40.493Z,1014.84
2018-07-10T04:07:50.172Z,1014.85
2018-07-10T04:08:59.343Z,1014.85
2018-07-10T04:10:09.311Z,1014.86
2018-07-10T04:11:18.738Z,1014.87
2018-07-10T04:12:27.895Z,1014.9
2018-07-10T04:13:37.297Z,1014.88
2018-07-10T04:14:46.696Z,1014.89
2018-07-10T04:15:56.106Z,1014.87
2018-07-10T04:17:04.755Z,1014.84
2018-07-10T04:18:14.166Z,1014.85
2018-07-10T04:19:23.060Z,1014.85
2018-07-10T04:20:32.247Z,1014.81
2018-07-10T04:21:41.661Z,1014.83
2018-07-10T04:22:51.340Z,1014.81
2018-07-10T04:24:00.504Z,1014.81
2018-07-10T04:25:09.933Z,1014.84
2018-07-10T04:26:19.350Z,1014.82
2018-07-10T04:27:28.771Z,1014.74
2018-07-10T04:28:37.669Z,1014.78
2018-07-10T04:29:47.102Z,1014.77
2018-07-10T04:30:56.517Z,1014.8
2018-07-10T04:32:06.183Z,1014.8
2018-07-10T04:33:15.350Z,1014.83
2018-07-10T04:34:24.766Z,1014.83
2018-07-10T04:35:34.175Z,1014.82
2018-07-10T04:36:44.024Z,1014.78
2018-07-10T04:37:54.027Z,1014.77
2018-07-10T04:39:03.432Z,1014.77
2018-07-10T04:40:13.371Z,1014.77
2018-07-10T04:41:22.782Z,1014.78
2018-07-10T04:42:32.470Z,1014.79
2018-07-10T04:43:41.901Z,1014.81
2018-07-10T04:44:50.799Z,1014.79
2018-07-10T04:46:00.484Z,1014.81
2018-07-10T04:47:09.901Z,1014.79
2018-07-10T04:48:19.056Z,1014.78
2018-07-10T04:49:28.555Z,1014.76
2018-07-10T04:50:38.587Z,1014.75
2018-07-10T04:51:48.001Z,1014.75
2018-07-10T04:52:57.919Z,1014.69
2018-07-10T04:54:07.582Z,1014.69
2018-07-10T04:55:16.739Z,1014.71
2018-07-10T04:56:26.815Z,1014.74
2018-07-10T04:57:36.221Z,1014.75
2018-07-10T04:58:45.891Z,1014.71
2018-07-10T04:59:55.887Z,1014.71
2018-07-10T05:01:05.314Z,1014.72
2018-07-10T05:02:14.993Z,1014.73
2018-07-10T05:03:24.152Z,1014.7
2018-07-10T05:04:33.825Z,1014.71
2018-07-10T05:05:43.426Z,1014.72
2018-07-10T05:06:53.569Z,1014.69
2018-07-10T05:08:03.259Z,1014.65
2018-07-10T05:09:13.196Z,1014.7
2018-07-10T05:10:22.878Z,1014.66
2018-07-10T05:11:32.061Z,1014.66
2018-07-10T05:12:41.211Z,1014.69
2018-07-10T05:13:51.145Z,1014.67
2018-07-10T05:15:00.813Z,1014.68
2018-07-10T05:16:10.263Z,1014.68
2018-07-10T05:17:19.171Z,1014.67
2018-07-10T05:18:28.584Z,1014.66
2018-07-10T05:19:37.745Z,1014.66
2018-07-10T05:20:46.658Z,1014.7
2018-07-10T05:21:56.068Z,1014.69
2018-07-10T05:23:05.832Z,1014.73
2018-07-10T05:24:15.140Z,1014.71
2018-07-10T05:25:24.573Z,1014.7
2018-07-10T05:26:34.256Z,1014.7
2018-07-10T05:27:43.673Z,1014.72
2018-07-10T05:28:52.713Z,1014.67
2018-07-10T05:30:02.570Z,1014.65
2018-07-10T05:31:11.467Z,1014.66
2018-07-10T05:32:21.226Z,1014.68
2018-07-10T05:33:31.162Z,1014.66
2018-07-10T05:34:41.090Z,1014.68
2018-07-10T05:35:50.505Z,1014.7
2018-07-10T05:37:00.437Z,1014.68
2018-07-10T05:38:10.213Z,1014.62
2018-07-10T05:39:19.649Z,1014.65
2018-07-10T05:40:28.817Z,1014.64
2018-07-10T05:41:38.494Z,1014.63
2018-07-10T05:42:47.649Z,1014.57
2018-07-10T05:43:56.564Z,1014.6
2018-07-10T05:45:06.251Z,1014.59
2018-07-10T05:46:15.966Z,1014.59
2018-07-10T05:47:25.812Z,1014.63
2018-07-10T05:48:35.240Z,1014.6
2018-07-10T05:49:44.402Z,1014.64
2018-07-10T05:50:54.073Z,1014.65
2018-07-10T05:52:03.503Z,1014.64
2018-07-10T05:53:13.815Z,1014.64
2018-07-10T05:54:23.768Z,1014.6
2018-07-10T05:55:33.692Z,1014.53
2018-07-10T05:56:43.367Z,1014.54
2018-07-10T05:57:52.540Z,1014.55
2018-07-10T05:59:01.981Z,1014.56
2018-07-10T06:00:11.667Z,1014.56
2018-07-10T06:01:21.073Z,1014.51
2018-07-10T06:02:30.779Z,1014.56
2018-07-10T06:03:40.478Z,1014.51
2018-07-10T06:04:50.156Z,1014.5
2018-07-10T06:05:59.318Z,1014.5
2018-07-10T06:07:08.220Z,1014.54
2018-07-10T06:08:18.166Z,1014.53
2018-07-10T06:09:27.324Z,1014.47
2018-07-10T06:10:36.235Z,1014.42
2018-07-10T06:11:45.386Z,1014.46
2018-07-10T06:12:54.299Z,1014.44
2018-07-10T06:14:03.993Z,1014.42
2018-07-10T06:15:14.188Z,1014.37
2018-07-10T06:16:23.870Z,1014.38
2018-07-10T06:17:33.548Z,1014.34
2018-07-10T06:18:43.493Z,1014.37
2018-07-10T06:19:52.923Z,1014.4
2018-07-10T06:21:02.282Z,1014.4
2018-07-10T06:22:12.869Z,1014.35
2018-07-10T06:23:22.711Z,1014.33
2018-07-10T06:24:32.551Z,1014.35
2018-07-10T06:25:41.710Z,1014.31
2018-07-10T06:26:50.626Z,1014.28
2018-07-10T06:28:00.333Z,1014.26
2018-07-10T06:29:09.811Z,1014.25
2018-07-10T06:30:19.041Z,1014.23
2018-07-10T06:31:29.175Z,1014.26
2018-07-10T06:32:38.084Z,1014.28
2018-07-10T06:33:47.001Z,1014.19
2018-07-10T06:34:56.686Z,1014.2
2018-07-10T06:36:05.884Z,1014.17
2018-07-10T06:37:15.590Z,1014.16
2018-07-10T06:38:25.028Z,1014.12
2018-07-10T06:39:34.730Z,1014.1
2018-07-10T06:40:44.305Z,1014.07
2018-07-10T06:41:53.502Z,1014.1
2018-07-10T06:43:02.955Z,1014.1
2018-07-10T06:44:12.392Z,1014.07
2018-07-10T06:45:21.829Z,1014.05
2018-07-10T06:46:31.006Z,1014.08
2018-07-10T06:47:40.438Z,1014.04
2018-07-10T06:48:49.726Z,1014.05
2018-07-10T06:49:59.191Z,1014.03
2018-07-10T06:51:08.378Z,1014.06
2018-07-10T06:52:17.116Z,1014.07
2018-07-10T06:53:27.216Z,1014.05
2018-07-10T06:54:37.485Z,1014.02
2018-07-10T06:55:47.167Z,1014.07
2018-07-10T06:56:56.864Z,1014.06
2018-07-10T06:58:06.308Z,1014.06
2018-07-10T06:59:15.499Z,1014.06
2018-07-10T07:00:24.680Z,1014.07
2018-07-10T07:01:33.592Z,1014.05
2018-07-10T07:02:43.023Z,1014.06
2018-07-10T07:03:52.711Z,1014.08
2018-07-10T07:05:01.881Z,1014.13
2018-07-10T07:06:11.570Z,1014.09
2018-07-10T07:07:21.266Z,1014.08
2018-07-10T07:08:30.448Z,1014.05
2018-07-10T07:09:40.220Z,1014.05
2018-07-10T07:10:49.381Z,1014.04
2018-07-10T07:11:59.090Z,1014.05
2018-07-10T07:13:08.270Z,1014.02
2018-07-10T07:14:18.224Z,1014.01
2018-07-10T07:15:27.647Z,1014.05
2018-07-10T07:16:37.345Z,1014.07
2018-07-10T07:17:46.514Z,1014.07
2018-07-10T07:18:55.935Z,1014.08
2018-07-10T07:20:05.341Z,1013.99
2018-07-10T07:21:14.777Z,1014.02
2018-07-10T07:22:24.452Z,1014
2018-07-10T07:23:34.152Z,1014.01
2018-07-10T07:24:44.342Z,1014.03
2018-07-10T07:25:53.827Z,1014.03
2018-07-10T07:27:03.263Z,1014.06
2018-07-10T07:28:12.954Z,1014.06
2018-07-10T07:29:22.365Z,1013.99
2018-07-10T07:30:31.813Z,1013.98
2018-07-10T07:31:40.990Z,1013.96
2018-07-10T07:32:50.678Z,1014
2018-07-10T07:34:00.128Z,1014.02
2018-07-10T07:35:10.056Z,1013.98
2018-07-10T07:36:19.739Z,1014.01
2018-07-10T07:37:29.173Z,1013.99
2018-07-10T07:38:38.625Z,1013.96
2018-07-10T07:39:48.034Z,1013.95
2018-07-10T07:40:57.990Z,1013.97
2018-07-10T07:42:07.169Z,1013.96
2018-07-10T07:43:16.847Z,1013.97
2018-07-10T07:44:26.616Z,1013.97
2018-07-10T07:45:35.817Z,1013.91
2018-07-10T07:46:45.265Z,1013.92
2018-07-10T07:47:54.687Z,1013.94
2018-07-10T07:49:03.857Z,1013.93
2018-07-10T07:50:13.024Z,1013.88
2018-07-10T07:51:22.696Z,1013.98
2018-07-10T07:52:32.184Z,1013.97
2018-07-10T07:53:42.140Z,1013.96
2018-07-10T07:54:51.304Z,1013.99
2018-07-10T07:56:00.736Z,1013.97
2018-07-10T07:57:10.225Z,1014
2018-07-10T07:58:19.390Z,1013.93
2018-07-10T07:59:29.539Z,1013.95
2018-07-10T08:00:38.972Z,1013.99
2018-07-10T08:01:48.405Z,1013.94
2018-07-10T08:02:58.512Z,1013.96
2018-07-10T08:04:07.420Z,1013.91
2018-07-10T08:05:17.080Z,1013.87
2018-07-10T08:06:27.019Z,1013.86
2018-07-10T08:07:36.427Z,1013.86
2018-07-10T08:08:45.379Z,1013.86
2018-07-10T08:09:55.073Z,1013.88
2018-07-10T08:11:04.267Z,1013.86
2018-07-10T08:12:14.010Z,1013.88
2018-07-10T08:13:23.822Z,1013.84
2018-07-10T08:14:33.252Z,1013.85
2018-07-10T08:15:42.969Z,1013.83
2018-07-10T08:16:52.159Z,1013.81
2018-07-10T08:18:02.014Z,1013.84
2018-07-10T08:19:11.715Z,1013.86
2018-07-10T08:20:22.051Z,1013.82
2018-07-10T08:21:31.476Z,1013.8
2018-07-10T08:22:40.652Z,1013.83
2018-07-10T08:23:50.128Z,1013.8
2018-07-10T08:24:59.034Z,1013.76
2018-07-10T08:26:08.473Z,1013.74
2018-07-10T08:27:17.902Z,1013.75
2018-07-10T08:28:27.327Z,1013.64
2018-07-10T08:29:36.792Z,1013.67
2018-07-10T08:30:46.493Z,1013.57
2018-07-10T08:31:56.455Z,1013.57
2018-07-10T08:33:06.144Z,1013.5
2018-07-10T08:34:15.641Z,1013.5
2018-07-10T08:35:25.361Z,1013.52
2018-07-10T08:36:35.289Z,1013.47
2018-07-10T08:37:44.462Z,1013.49
2018-07-10T08:38:53.377Z,1013.46
2018-07-10T08:40:02.802Z,1013.48
2018-07-10T08:41:12.247Z,1013.42
2018-07-10T08:42:21.919Z,1013.44
2018-07-10T08:43:31.611Z,1013.49
2018-07-10T08:44:40.826Z,1013.51
2018-07-10T08:45:49.738Z,1013.52
2018-07-10T08:46:59.156Z,1013.48
2018-07-10T08:48:08.316Z,1013.44
2018-07-10T08:49:17.493Z,1013.46
2018-07-10T08:50:26.712Z,1013.46
2018-07-10T08:51:36.714Z,1013.44
2018-07-10T08:52:46.385Z,1013.49
2018-07-10T08:53:55.556Z,1013.47
2018-07-10T08:55:04.987Z,1013.48
2018-07-10T08:56:15.164Z,1013.46
2018-07-10T08:57:25.102Z,1013.45
2018-07-10T08:58:34.536Z,1013.45
2018-07-10T08:59:43.722Z,1013.38
2018-07-10T09:00:53.657Z,1013.35
2018-07-10T09:02:03.390Z,1013.37
2018-07-10T09:03:13.104Z,1013.4
2018-07-10T09:04:22.259Z,1013.4
2018-07-10T09:05:31.952Z,1013.37
2018-07-10T09:06:41.643Z,1013.42
2018-07-10T09:07:50.811Z,1013.43
2018-07-10T09:09:00.463Z,1013.38
2018-07-10T09:10:09.897Z,1013.43
2018-07-10T09:11:19.596Z,1013.41
2018-07-10T09:12:29.034Z,1013.4
2018-07-10T09:13:38.231Z,1013.4
2018-07-10T09:14:47.970Z,1013.39
2018-07-10T09:15:57.191Z,1013.38
2018-07-10T09:17:06.641Z,1013.38
2018-07-10T09:18:16.067Z,1013.35
2018-07-10T09:19:25.481Z,1013.3
2018-07-10T09:20:34.656Z,1013.33
2018-07-10T09:21:43.611Z,1013.34
2018-07-10T09:22:52.792Z,1013.37
2018-07-10T09:24:01.964Z,1013.42
2018-07-10T09:25:11.680Z,1013.37
2018-07-10T09:26:21.105Z,1013.34
2018-07-10T09:27:30.518Z,1013.33
2018-07-10T09:28:40.213Z,1013.37
2018-07-10T09:29:49.381Z,1013.38
2018-07-10T09:30:59.078Z,1013.42
2018-07-10T09:32:08.498Z,1013.41
2018-07-10T09:33:17.657Z,1013.37
2018-07-10T09:34:27.267Z,1013.38
2018-07-10T09:35:37.187Z,1013.35
2018-07-10T09:36:46.091Z,1013.39
2018-07-10T09:37:55.683Z,1013.33
2018-07-10T09:39:05.215Z,1013.3
2018-07-10T09:40:14.388Z,1013.3
2018-07-10T09:41:23.568Z,1013.32
2018-07-10T09:42:33.262Z,1013.32
2018-07-10T09:43:42.678Z,1013.4
2018-07-10T09:44:52.131Z,1013.35
2018-07-10T09:46:01.570Z,1013.33
2018-07-10T09:47:11.010Z,1013.29
2018-07-10T09:48:20.438Z,1013.34
2018-07-10T09:49:29.375Z,1013.32
2018-07-10T09:50:38.552Z,1013.32
2018-07-10T09:51:47.972Z,1013.3
2018-07-10T09:52:57.664Z,1013.3
2018-07-10T09:54:07.092Z,1013.3
2018-07-10T09:55:16.791Z,1013.33
2018-07-10T09:56:25.983Z,1013.32
2018-07-10T09:57:35.700Z,1013.33
2018-07-10T09:58:45.122Z,1013.37
2018-07-10T09:59:53.787Z,1013.4
2018-07-10T10:01:03.502Z,1013.39
2018-07-10T10:02:12.936Z,1013.36
2018-07-10T10:03:22.104Z,1013.34
2018-07-10T10:04:31.796Z,1013.37
2018-07-10T10:05:40.452Z,1013.4
2018-07-10T10:06:49.871Z,1013.4
2018-07-10T10:07:59.555Z,1013.44
2018-07-10T10:09:09.495Z,1013.47
2018-07-10T10:10:18.916Z,1013.4
2018-07-10T10:11:28.347Z,1013.34
2018-07-10T10:12:37.509Z,1013.37
2018-07-10T10:13:46.942Z,1013.37
2018-07-10T10:14:56.373Z,1013.39
2018-07-10T10:16:05.539Z,1013.39
2018-07-10T10:17:14.996Z,1013.35
2018-07-10T10:18:24.695Z,1013.37
2018-07-10T10:19:33.887Z,1013.34
2018-07-10T10:20:43.327Z,1013.35
2018-07-10T10:21:52.501Z,1013.33
2018-07-10T10:23:02.183Z,1013.26
2018-07-10T10:24:11.880Z,1013.29
2018-07-10T10:25:21.310Z,1013.3
2018-07-10T10:26:30.490Z,1013.31
2018-07-10T10:27:39.901Z,1013.31
2018-07-10T10:28:49.370Z,1013.23
2018-07-10T10:29:58.790Z,1013.25
2018-07-10T10:31:07.948Z,1013.24
2018-07-10T10:32:17.667Z,1013.22
2018-07-10T10:33:27.090Z,1013.15
2018-07-10T10:34:36.512Z,1013.14
2018-07-10T10:35:45.472Z,1013.11
2018-07-10T10:36:55.379Z,1013.03
2018-07-10T10:38:05.061Z,1013.1
2018-07-10T10:39:14.480Z,1013.08
2018-07-10T10:40:23.686Z,1013.05
2018-07-10T10:41:33.148Z,1013.03
2018-07-10T10:42:43.179Z,1013.05
2018-07-10T10:43:52.360Z,1013.03
2018-07-10T10:45:01.540Z,1013.12
2018-07-10T10:46:11.008Z,1013.04
2018-07-10T10:47:20.153Z,1013.07
2018-07-10T10:48:29.840Z,1013.05
2018-07-10T10:49:39.053Z,1013.09
2018-07-10T10:50:48.495Z,1013.07
2018-07-10T10:51:57.681Z,1013.06
2018-07-10T10:53:07.100Z,1013.05
2018-07-10T10:54:16.294Z,1013.02
2018-07-10T10:55:25.469Z,1013
2018-07-10T10:56:34.879Z,1013.02
2018-07-10T10:57:44.043Z,1012.95
2018-07-10T10:58:53.199Z,1012.9
2018-07-10T11:00:02.367Z,1012.86
2018-07-10T11:01:12.077Z,1012.81
2018-07-10T11:02:21.586Z,1012.85
2018-07-10T11:03:31.513Z,1012.83
2018-07-10T11:04:40.421Z,1012.85
2018-07-10T11:05:50.120Z,1012.88
2018-07-10T11:06:59.792Z,1012.9
2018-07-10T11:08:08.951Z,1012.88
2018-07-10T11:09:18.380Z,1012.85
2018-07-10T11:10:27.532Z,1012.91
2018-07-10T11:11:37.484Z,1012.89
2018-07-10T11:12:46.939Z,1012.83
2018-07-10T11:13:56.131Z,1012.91
2018-07-10T11:15:05.587Z,1012.91
2018-07-10T11:16:14.749Z,1012.91
2018-07-10T11:17:23.644Z,1012.9
2018-07-10T11:18:32.557Z,1012.93
2018-07-10T11:19:42.271Z,1012.96
2018-07-10T11:20:51.963Z,1012.95
2018-07-10T11:22:01.384Z,1012.89
2018-07-10T11:23:11.072Z,1012.9
2018-07-10T11:24:19.972Z,1012.93
2018-07-10T11:25:29.398Z,1012.87
2018-07-10T11:26:38.837Z,1012.89
2018-07-10T11:27:48.030Z,1012.98
2018-07-10T11:28:57.445Z,1012.86
2018-07-10T11:30:06.856Z,1012.95
2018-07-10T11:31:16.542Z,1012.87
2018-07-10T11:32:25.725Z,1012.88
2018-07-10T11:33:35.684Z,1012.81
2018-07-10T11:34:45.111Z,1012.86
2018-07-10T11:35:54.565Z,1012.85
2018-07-10T11:37:03.724Z,1012.87
2018-07-10T11:38:13.427Z,1012.83
2018-07-10T11:39:23.635Z,1012.78
2018-07-10T11:40:33.078Z,1012.76
2018-07-10T11:41:42.506Z,1012.71
2018-07-10T11:42:51.679Z,1012.71
2018-07-10T11:44:01.363Z,1012.69
2018-07-10T11:45:10.779Z,1012.71
2018-07-10T11:46:20.495Z,1012.7
2018-07-10T11:47:30.207Z,1012.69
2018-07-10T11:48:39.694Z,1012.64
2018-07-10T11:49:49.127Z,1012.62
2018-07-10T11:50:58.654Z,1012.6
2018-07-10T11:52:07.938Z,1012.58
2018-07-10T11:53:17.718Z,1012.58
2018-07-10T11:54:27.189Z,1012.54
2018-07-10T11:55:36.741Z,1012.52
2018-07-10T11:56:45.654Z,1012.49
2018-07-10T11:57:55.080Z,1012.6
2018-07-10T11:59:04.507Z,1012.57
2018-07-10T12:00:13.692Z,1012.57
2018-07-10T12:01:23.134Z,1012.55
2018-07-10T12:02:32.584Z,1012.58
2018-07-10T12:03:42.007Z,1012.54
2018-07-10T12:04:51.222Z,1012.55
2018-07-10T12:06:01.336Z,1012.5
2018-07-10T12:07:10.508Z,1012.48
2018-07-10T12:08:19.931Z,1012.5
2018-07-10T12:09:29.108Z,1012.59
2018-07-10T12:10:39.221Z,1012.62
2018-07-10T12:11:48.914Z,1012.66
2018-07-10T12:12:57.849Z,1012.65
2018-07-10T12:14:07.285Z,1012.61
2018-07-10T12:15:16.464Z,1012.57
2018-07-10T12:16:26.145Z,1012.63
2018-07-10T12:17:35.312Z,1012.61
2018-07-10T12:18:44.471Z,1012.61
2018-07-10T12:19:53.369Z,1012.56
2018-07-10T12:21:03.073Z,1012.54
2018-07-10T12:22:12.489Z,1012.52
2018-07-10T12:23:22.431Z,1012.52
2018-07-10T12:24:32.147Z,1012.51
2018-07-10T12:25:41.592Z,1012.48
2018-07-10T12:26:51.030Z,1012.5
2018-07-10T12:28:00.572Z,1012.48
2018-07-10T12:29:10.806Z,1012.46
2018-07-10T12:30:19.711Z,1012.47
2018-07-10T12:31:28.635Z,1012.38
2018-07-10T12:32:38.073Z,1012.42
2018-07-10T12:33:47.245Z,1012.43
2018-07-10T12:34:56.801Z,1012.46
2018-07-10T12:36:06.429Z,1012.45
2018-07-10T12:37:15.640Z,1012.49
2018-07-10T12:38:25.052Z,1012.48
2018-07-10T12:39:34.727Z,1012.49
2018-07-10T12:40:43.634Z,1012.48
2018-07-10T12:41:52.792Z,1012.46
2018-07-10T12:43:01.966Z,1012.51
2018-07-10T12:44:11.389Z,1012.46
2018-07-10T12:45:21.352Z,1012.45
2018-07-10T12:46:31.463Z,1012.45
2018-07-10T12:47:40.639Z,1012.48
2018-07-10T12:48:50.077Z,1012.57
2018-07-10T12:49:59.487Z,1012.45
2018-07-10T12:51:09.156Z,1012.44
2018-07-10T12:52:18.835Z,1012.42
2018-07-10T12:53:28.258Z,1012.51
2018-07-10T12:54:38.191Z,1012.43
2018-07-10T12:55:47.613Z,1012.4
2018-07-10T12:56:57.625Z,1012.47
2018-07-10T12:58:06.808Z,1012.42
2018-07-10T12:59:15.462Z,1012.41
2018-07-10T13:00:24.894Z,1012.43
2018-07-10T13:01:34.826Z,1012.52
2018-07-10T13:02:44.002Z,1012.56
2018-07-10T13:03:53.437Z,1012.55
2018-07-10T13:05:02.349Z,1012.54
2018-07-10T13:06:12.032Z,1012.51
2018-07-10T13:07:21.768Z,1012.48
2018-07-10T13:08:31.446Z,1012.56
2018-07-10T13:09:40.620Z,1012.54
2018-07-10T13:10:49.804Z,1012.56
2018-07-10T13:11:59.743Z,1012.58
2018-07-10T13:13:09.689Z,1012.58
2018-07-10T13:14:18.877Z,1012.57
2018-07-10T13:15:28.302Z,1012.54
2018-07-10T13:16:38.031Z,1012.56
2018-07-10T13:17:47.698Z,1012.57
2018-07-10T13:18:57.102Z,1012.56
2018-07-10T13:20:06.531Z,1012.51
2018-07-10T13:21:16.231Z,1012.59
2018-07-10T13:22:25.697Z,1012.58
2018-07-10T13:23:34.603Z,1012.5
2018-07-10T13:24:44.290Z,1012.47
2018-07-10T13:25:53.468Z,1012.42
2018-07-10T13:27:02.427Z,1012.41
2018-07-10T13:28:11.629Z,1012.42
2018-07-10T13:29:20.545Z,1012.47
2018-07-10T13:30:29.723Z,1012.43
2018-07-10T13:31:39.409Z,1012.39
2018-07-10T13:32:48.310Z,1012.37
2018-07-10T13:33:57.744Z,1012.34
2018-07-10T13:35:06.649Z,1012.36
2018-07-10T13:36:16.341Z,1012.24
2018-07-10T13:37:26.012Z,1012.23
2018-07-10T13:38:35.452Z,1012.23
2018-07-10T13:39:44.863Z,1012.19
2018-07-10T13:40:54.313Z,1012.23
2018-07-10T13:42:03.500Z,1012.18
2018-07-10T13:43:13.268Z,1012.24
2018-07-10T13:44:23.752Z,1012.19
2018-07-10T13:45:32.935Z,1012.2
2018-07-10T13:46:42.363Z,1012.15
2018-07-10T13:47:52.310Z,1012.14
2018-07-10T13:49:01.732Z,1012.16
2018-07-10T13:50:10.711Z,1012.04
2018-07-10T13:51:20.181Z,1012.05
2018-07-10T13:52:29.644Z,1012
2018-07-10T13:53:39.075Z,1011.96
2018-07-10T13:54:49.053Z,1011.98
2018-07-10T13:55:58.198Z,1011.9
2018-07-10T13:57:08.126Z,1011.87
2018-07-10T13:58:17.818Z,1011.91
2018-07-10T13:59:27.505Z,1011.85
2018-07-10T14:00:36.936Z,1011.92
2018-07-10T14:01:46.349Z,1011.89
2018-07-10T14:02:56.031Z,1011.97